sensor_id;sensor_type;location;lat;lon;timestamp;P1;durP1;ratioP1;P2;durP2;ratioP2
42682;SDS011;28293;50.930;3.464;2024-02-15T00:00:12;14.25;;;5.85;;
42682;SDS011;28293;50.930;3.464;2024-02-15T00:02:40;13.48;;;5.57;;
42682;SDS011;28293;50.930;3.464;2024-02-15T00:05:05;14.73;;;5.60;;
42682;SDS011;28293;50.930;3.464;2024-02-15T00:07:33;14.80;;;5.80;;
42682;SDS011;28293;50.930;3.464;2024-02-15T00:10:00;15.15;;;5.82;;
42682;SDS011;28293;50.930;3.464;2024-02-15T00:12:25;12.85;;;6.25;;
42682;SDS011;28293;50.930;3.464;2024-02-15T00:14:51;16.08;;;5.63;;
42682;SDS011;28293;50.930;3.464;2024-02-15T00:17:17;13.20;;;5.38;;
42682;SDS011;28293;50.930;3.464;2024-02-15T00:19:43;19.15;;;6.25;;
42682;SDS011;28293;50.930;3.464;2024-02-15T00:22:09;17.73;;;6.35;;
42682;SDS011;28293;50.930;3.464;2024-02-15T00:24:36;16.85;;;5.85;;
42682;SDS011;28293;50.930;3.464;2024-02-15T00:27:06;18.48;;;5.88;;
42682;SDS011;28293;50.930;3.464;2024-02-15T00:29:32;15.10;;;5.47;;
42682;SDS011;28293;50.930;3.464;2024-02-15T00:31:59;14.70;;;5.78;;
42682;SDS011;28293;50.930;3.464;2024-02-15T00:34:25;13.20;;;5.97;;
42682;SDS011;28293;50.930;3.464;2024-02-15T00:36:51;21.15;;;6.03;;
42682;SDS011;28293;50.930;3.464;2024-02-15T00:39:17;18.88;;;6.30;;
42682;SDS011;28293;50.930;3.464;2024-02-15T00:41:44;15.68;;;5.80;;
42682;SDS011;28293;50.930;3.464;2024-02-15T00:44:10;19.73;;;6.13;;
42682;SDS011;28293;50.930;3.464;2024-02-15T00:46:36;12.25;;;5.32;;
42682;SDS011;28293;50.930;3.464;2024-02-15T00:49:03;12.55;;;5.28;;
42682;SDS011;28293;50.930;3.464;2024-02-15T00:51:31;15.48;;;6.22;;
42682;SDS011;28293;50.930;3.464;2024-02-15T00:53:58;14.93;;;5.85;;
42682;SDS011;28293;50.930;3.464;2024-02-15T00:56:25;16.15;;;6.00;;
42682;SDS011;28293;50.930;3.464;2024-02-15T00:58:51;14.27;;;6.45;;
42682;SDS011;28293;50.930;3.464;2024-02-15T01:01:17;14.57;;;5.63;;
42682;SDS011;28293;50.930;3.464;2024-02-15T01:03:43;13.02;;;5.75;;
42682;SDS011;28293;50.930;3.464;2024-02-15T01:06:08;18.88;;;6.57;;
42682;SDS011;28293;50.930;3.464;2024-02-15T01:08:34;17.50;;;6.30;;
42682;SDS011;28293;50.930;3.464;2024-02-15T01:10:59;13.13;;;6.13;;
42682;SDS011;28293;50.930;3.464;2024-02-15T01:13:25;14.23;;;6.25;;
42682;SDS011;28293;50.930;3.464;2024-02-15T01:15:51;16.30;;;6.57;;
42682;SDS011;28293;50.930;3.464;2024-02-15T01:18:16;19.00;;;6.63;;
42682;SDS011;28293;50.930;3.464;2024-02-15T01:20:42;16.75;;;6.88;;
42682;SDS011;28293;50.930;3.464;2024-02-15T01:23:08;18.90;;;7.07;;
42682;SDS011;28293;50.930;3.464;2024-02-15T01:25:34;14.35;;;6.60;;
42682;SDS011;28293;50.930;3.464;2024-02-15T01:28:00;16.92;;;7.75;;
42682;SDS011;28293;50.930;3.464;2024-02-15T01:30:27;20.42;;;6.90;;
42682;SDS011;28293;50.930;3.464;2024-02-15T01:32:53;13.82;;;6.68;;
42682;SDS011;28293;50.930;3.464;2024-02-15T01:35:19;17.15;;;7.43;;
42682;SDS011;28293;50.930;3.464;2024-02-15T01:37:45;15.88;;;7.43;;
42682;SDS011;28293;50.930;3.464;2024-02-15T01:40:11;21.65;;;7.07;;
42682;SDS011;28293;50.930;3.464;2024-02-15T01:42:38;13.38;;;7.00;;
42682;SDS011;28293;50.930;3.464;2024-02-15T01:45:04;18.20;;;7.53;;
42682;SDS011;28293;50.930;3.464;2024-02-15T01:47:31;17.65;;;7.15;;
42682;SDS011;28293;50.930;3.464;2024-02-15T01:49:57;16.63;;;7.47;;
42682;SDS011;28293;50.930;3.464;2024-02-15T01:52:23;16.20;;;7.57;;
42682;SDS011;28293;50.930;3.464;2024-02-15T01:54:48;14.75;;;7.00;;
42682;SDS011;28293;50.930;3.464;2024-02-15T01:57:18;19.45;;;7.40;;
42682;SDS011;28293;50.930;3.464;2024-02-15T01:59:46;18.50;;;7.55;;
42682;SDS011;28293;50.930;3.464;2024-02-15T02:02:12;21.48;;;8.02;;
42682;SDS011;28293;50.930;3.464;2024-02-15T02:04:41;16.08;;;6.28;;
42682;SDS011;28293;50.930;3.464;2024-02-15T02:07:07;13.07;;;6.95;;
42682;SDS011;28293;50.930;3.464;2024-02-15T02:09:33;19.17;;;7.25;;
42682;SDS011;28293;50.930;3.464;2024-02-15T02:11:59;14.57;;;6.80;;
42682;SDS011;28293;50.930;3.464;2024-02-15T02:14:25;16.25;;;6.78;;
42682;SDS011;28293;50.930;3.464;2024-02-15T02:16:51;14.88;;;7.10;;
42682;SDS011;28293;50.930;3.464;2024-02-15T02:19:16;14.70;;;6.97;;
42682;SDS011;28293;50.930;3.464;2024-02-15T02:21:42;12.35;;;6.43;;
42682;SDS011;28293;50.930;3.464;2024-02-15T02:24:13;14.32;;;6.32;;
42682;SDS011;28293;50.930;3.464;2024-02-15T02:26:42;18.15;;;7.70;;
42682;SDS011;28293;50.930;3.464;2024-02-15T02:29:08;15.27;;;6.75;;
42682;SDS011;28293;50.930;3.464;2024-02-15T02:31:34;16.25;;;6.43;;
42682;SDS011;28293;50.930;3.464;2024-02-15T02:34:00;15.25;;;6.47;;
42682;SDS011;28293;50.930;3.464;2024-02-15T02:36:26;13.20;;;6.78;;
42682;SDS011;28293;50.930;3.464;2024-02-15T02:38:52;19.55;;;7.13;;
42682;SDS011;28293;50.930;3.464;2024-02-15T02:41:18;22.55;;;7.55;;
42682;SDS011;28293;50.930;3.464;2024-02-15T02:43:48;14.80;;;6.38;;
42682;SDS011;28293;50.930;3.464;2024-02-15T02:46:14;13.00;;;7.07;;
42682;SDS011;28293;50.930;3.464;2024-02-15T02:48:40;15.18;;;7.03;;
42682;SDS011;28293;50.930;3.464;2024-02-15T02:51:06;14.30;;;6.95;;
42682;SDS011;28293;50.930;3.464;2024-02-15T02:53:33;15.88;;;7.05;;
42682;SDS011;28293;50.930;3.464;2024-02-15T02:55:58;13.95;;;6.78;;
42682;SDS011;28293;50.930;3.464;2024-02-15T02:58:24;14.77;;;7.07;;
42682;SDS011;28293;50.930;3.464;2024-02-15T03:00:50;15.48;;;7.38;;
42682;SDS011;28293;50.930;3.464;2024-02-15T03:03:16;20.30;;;7.50;;
42682;SDS011;28293;50.930;3.464;2024-02-15T03:05:44;14.77;;;7.45;;
42682;SDS011;28293;50.930;3.464;2024-02-15T03:08:10;16.60;;;7.88;;
42682;SDS011;28293;50.930;3.464;2024-02-15T03:10:37;17.33;;;7.97;;
42682;SDS011;28293;50.930;3.464;2024-02-15T03:13:04;14.32;;;7.13;;
42682;SDS011;28293;50.930;3.464;2024-02-15T03:15:30;14.65;;;7.10;;
42682;SDS011;28293;50.930;3.464;2024-02-15T03:17:58;13.13;;;7.07;;
42682;SDS011;28293;50.930;3.464;2024-02-15T03:20:23;16.80;;;7.88;;
42682;SDS011;28293;50.930;3.464;2024-02-15T03:22:56;17.27;;;7.40;;
42682;SDS011;28293;50.930;3.464;2024-02-15T03:25:23;14.80;;;7.22;;
42682;SDS011;28293;50.930;3.464;2024-02-15T03:27:52;16.00;;;8.10;;
42682;SDS011;28293;50.930;3.464;2024-02-15T03:30:19;17.13;;;7.55;;
42682;SDS011;28293;50.930;3.464;2024-02-15T03:32:46;15.10;;;6.63;;
42682;SDS011;28293;50.930;3.464;2024-02-15T03:35:18;15.43;;;7.22;;
42682;SDS011;28293;50.930;3.464;2024-02-15T03:37:45;14.48;;;6.85;;
42682;SDS011;28293;50.930;3.464;2024-02-15T03:40:11;16.05;;;6.75;;
42682;SDS011;28293;50.930;3.464;2024-02-15T03:42:37;14.68;;;6.10;;
42682;SDS011;28293;50.930;3.464;2024-02-15T03:45:06;11.20;;;6.32;;
42682;SDS011;28293;50.930;3.464;2024-02-15T03:47:33;12.77;;;6.85;;
42682;SDS011;28293;50.930;3.464;2024-02-15T03:50:00;18.13;;;6.65;;
42682;SDS011;28293;50.930;3.464;2024-02-15T03:52:36;14.95;;;6.75;;
42682;SDS011;28293;50.930;3.464;2024-02-15T03:55:02;13.02;;;6.28;;
42682;SDS011;28293;50.930;3.464;2024-02-15T03:57:29;12.30;;;5.97;;
42682;SDS011;28293;50.930;3.464;2024-02-15T03:59:55;13.85;;;6.30;;
42682;SDS011;28293;50.930;3.464;2024-02-15T04:02:23;15.90;;;6.95;;
42682;SDS011;28293;50.930;3.464;2024-02-15T04:04:51;13.43;;;6.53;;
42682;SDS011;28293;50.930;3.464;2024-02-15T04:07:18;11.13;;;5.35;;
42682;SDS011;28293;50.930;3.464;2024-02-15T04:09:44;12.95;;;5.82;;
42682;SDS011;28293;50.930;3.464;2024-02-15T04:12:10;12.88;;;5.50;;
42682;SDS011;28293;50.930;3.464;2024-02-15T04:14:36;13.75;;;5.75;;
42682;SDS011;28293;50.930;3.464;2024-02-15T04:17:05;15.00;;;6.40;;
42682;SDS011;28293;50.930;3.464;2024-02-15T04:19:31;13.48;;;5.95;;
42682;SDS011;28293;50.930;3.464;2024-02-15T04:21:57;13.82;;;6.20;;
42682;SDS011;28293;50.930;3.464;2024-02-15T04:24:24;15.30;;;6.78;;
42682;SDS011;28293;50.930;3.464;2024-02-15T04:26:50;13.70;;;6.60;;
42682;SDS011;28293;50.930;3.464;2024-02-15T04:29:16;19.75;;;7.70;;
42682;SDS011;28293;50.930;3.464;2024-02-15T04:31:45;17.13;;;7.70;;
42682;SDS011;28293;50.930;3.464;2024-02-15T04:34:15;14.23;;;7.57;;
42682;SDS011;28293;50.930;3.464;2024-02-15T04:36:41;16.05;;;7.28;;
42682;SDS011;28293;50.930;3.464;2024-02-15T04:39:10;17.92;;;8.30;;
42682;SDS011;28293;50.930;3.464;2024-02-15T04:41:40;14.95;;;7.75;;
42682;SDS011;28293;50.930;3.464;2024-02-15T04:44:06;17.10;;;8.68;;
42682;SDS011;28293;50.930;3.464;2024-02-15T04:46:36;15.10;;;8.27;;
42682;SDS011;28293;50.930;3.464;2024-02-15T04:49:02;18.73;;;8.27;;
42682;SDS011;28293;50.930;3.464;2024-02-15T04:51:28;16.98;;;8.45;;
42682;SDS011;28293;50.930;3.464;2024-02-15T04:53:54;15.82;;;8.38;;
42682;SDS011;28293;50.930;3.464;2024-02-15T04:56:19;18.95;;;8.50;;
42682;SDS011;28293;50.930;3.464;2024-02-15T04:58:46;16.15;;;7.80;;
42682;SDS011;28293;50.930;3.464;2024-02-15T05:01:15;14.57;;;7.40;;
42682;SDS011;28293;50.930;3.464;2024-02-15T05:03:44;13.52;;;6.72;;
42682;SDS011;28293;50.930;3.464;2024-02-15T05:06:10;13.95;;;7.07;;
42682;SDS011;28293;50.930;3.464;2024-02-15T05:08:38;15.43;;;6.57;;
42682;SDS011;28293;50.930;3.464;2024-02-15T05:11:11;19.38;;;6.72;;
42682;SDS011;28293;50.930;3.464;2024-02-15T05:13:45;16.13;;;7.35;;
42682;SDS011;28293;50.930;3.464;2024-02-15T05:16:11;12.60;;;6.45;;
42682;SDS011;28293;50.930;3.464;2024-02-15T05:18:37;12.88;;;6.25;;
42682;SDS011;28293;50.930;3.464;2024-02-15T05:21:05;13.43;;;5.82;;
42682;SDS011;28293;50.930;3.464;2024-02-15T05:23:34;11.52;;;5.70;;
42682;SDS011;28293;50.930;3.464;2024-02-15T05:26:04;11.88;;;6.05;;
42682;SDS011;28293;50.930;3.464;2024-02-15T05:28:31;11.68;;;5.82;;
42682;SDS011;28293;50.930;3.464;2024-02-15T05:31:10;11.35;;;5.85;;
42682;SDS011;28293;50.930;3.464;2024-02-15T05:33:40;13.85;;;5.93;;
42682;SDS011;28293;50.930;3.464;2024-02-15T05:36:12;13.10;;;5.70;;
42682;SDS011;28293;50.930;3.464;2024-02-15T05:38:39;15.30;;;5.60;;
42682;SDS011;28293;50.930;3.464;2024-02-15T05:41:05;12.35;;;5.80;;
42682;SDS011;28293;50.930;3.464;2024-02-15T05:43:33;10.85;;;5.43;;
42682;SDS011;28293;50.930;3.464;2024-02-15T05:46:01;13.35;;;5.60;;
42682;SDS011;28293;50.930;3.464;2024-02-15T05:48:31;13.52;;;5.25;;
42682;SDS011;28293;50.930;3.464;2024-02-15T05:51:00;13.32;;;5.50;;
42682;SDS011;28293;50.930;3.464;2024-02-15T05:53:26;11.40;;;5.32;;
42682;SDS011;28293;50.930;3.464;2024-02-15T05:55:52;11.85;;;5.05;;
42682;SDS011;28293;50.930;3.464;2024-02-15T05:58:18;11.55;;;5.72;;
42682;SDS011;28293;50.930;3.464;2024-02-15T06:00:44;10.52;;;5.22;;
42682;SDS011;28293;50.930;3.464;2024-02-15T06:03:12;11.07;;;4.70;;
42682;SDS011;28293;50.930;3.464;2024-02-15T06:05:38;11.52;;;5.18;;
42682;SDS011;28293;50.930;3.464;2024-02-15T06:08:05;9.38;;;4.88;;
42682;SDS011;28293;50.930;3.464;2024-02-15T06:10:31;13.60;;;5.60;;
42682;SDS011;28293;50.930;3.464;2024-02-15T06:12:56;12.23;;;5.30;;
42682;SDS011;28293;50.930;3.464;2024-02-15T06:15:25;12.85;;;5.15;;
42682;SDS011;28293;50.930;3.464;2024-02-15T06:17:52;11.75;;;4.75;;
42682;SDS011;28293;50.930;3.464;2024-02-15T06:20:18;10.52;;;4.57;;
42682;SDS011;28293;50.930;3.464;2024-02-15T06:22:45;9.25;;;4.47;;
42682;SDS011;28293;50.930;3.464;2024-02-15T06:25:11;11.30;;;4.63;;
42682;SDS011;28293;50.930;3.464;2024-02-15T06:27:38;13.40;;;4.47;;
42682;SDS011;28293;50.930;3.464;2024-02-15T06:30:11;11.52;;;4.70;;
42682;SDS011;28293;50.930;3.464;2024-02-15T06:32:56;10.65;;;4.22;;
42682;SDS011;28293;50.930;3.464;2024-02-15T06:35:41;9.32;;;4.45;;
42682;SDS011;28293;50.930;3.464;2024-02-15T06:38:25;12.88;;;4.40;;
42682;SDS011;28293;50.930;3.464;2024-02-15T06:41:10;10.95;;;3.88;;
42682;SDS011;28293;50.930;3.464;2024-02-15T06:43:36;11.82;;;4.93;;
42682;SDS011;28293;50.930;3.464;2024-02-15T06:46:02;10.75;;;3.97;;
42682;SDS011;28293;50.930;3.464;2024-02-15T06:48:31;8.70;;;4.15;;
42682;SDS011;28293;50.930;3.464;2024-02-15T06:50:56;10.98;;;4.18;;
42682;SDS011;28293;50.930;3.464;2024-02-15T06:53:23;9.27;;;4.00;;
42682;SDS011;28293;50.930;3.464;2024-02-15T06:55:49;11.13;;;4.13;;
42682;SDS011;28293;50.930;3.464;2024-02-15T06:58:15;10.60;;;4.50;;
42682;SDS011;28293;50.930;3.464;2024-02-15T07:00:44;9.40;;;3.65;;
42682;SDS011;28293;50.930;3.464;2024-02-15T07:03:10;7.75;;;3.70;;
42682;SDS011;28293;50.930;3.464;2024-02-15T07:05:36;9.55;;;3.83;;
42682;SDS011;28293;50.930;3.464;2024-02-15T07:08:07;8.65;;;4.32;;
42682;SDS011;28293;50.930;3.464;2024-02-15T07:10:36;9.93;;;3.95;;
42682;SDS011;28293;50.930;3.464;2024-02-15T07:13:03;8.85;;;4.00;;
42682;SDS011;28293;50.930;3.464;2024-02-15T07:15:29;10.55;;;4.05;;
42682;SDS011;28293;50.930;3.464;2024-02-15T07:17:58;7.90;;;3.63;;
42682;SDS011;28293;50.930;3.464;2024-02-15T07:20:24;10.80;;;3.88;;
42682;SDS011;28293;50.930;3.464;2024-02-15T07:22:50;10.30;;;4.22;;
42682;SDS011;28293;50.930;3.464;2024-02-15T07:25:16;14.98;;;4.40;;
42682;SDS011;28293;50.930;3.464;2024-02-15T07:27:43;10.85;;;4.72;;
42682;SDS011;28293;50.930;3.464;2024-02-15T07:30:08;11.82;;;4.55;;
42682;SDS011;28293;50.930;3.464;2024-02-15T07:32:34;9.80;;;3.53;;
42682;SDS011;28293;50.930;3.464;2024-02-15T07:35:00;9.65;;;4.75;;
42682;SDS011;28293;50.930;3.464;2024-02-15T07:37:26;9.60;;;4.20;;
42682;SDS011;28293;50.930;3.464;2024-02-15T07:39:54;13.20;;;5.15;;
42682;SDS011;28293;50.930;3.464;2024-02-15T07:42:19;12.05;;;5.05;;
42682;SDS011;28293;50.930;3.464;2024-02-15T07:44:45;12.70;;;4.63;;
42682;SDS011;28293;50.930;3.464;2024-02-15T07:47:11;15.38;;;5.40;;
42682;SDS011;28293;50.930;3.464;2024-02-15T07:49:36;15.10;;;4.85;;
42682;SDS011;28293;50.930;3.464;2024-02-15T07:52:02;10.68;;;4.90;;
42682;SDS011;28293;50.930;3.464;2024-02-15T07:54:29;11.30;;;5.47;;
42682;SDS011;28293;50.930;3.464;2024-02-15T07:56:56;16.08;;;5.53;;
42682;SDS011;28293;50.930;3.464;2024-02-15T07:59:23;13.90;;;5.03;;
42682;SDS011;28293;50.930;3.464;2024-02-15T08:01:48;9.15;;;5.15;;
42682;SDS011;28293;50.930;3.464;2024-02-15T08:04:18;16.15;;;5.90;;
42682;SDS011;28293;50.930;3.464;2024-02-15T08:06:45;12.68;;;5.70;;
42682;SDS011;28293;50.930;3.464;2024-02-15T08:09:13;13.05;;;6.28;;
42682;SDS011;28293;50.930;3.464;2024-02-15T08:11:43;13.32;;;5.78;;
42682;SDS011;28293;50.930;3.464;2024-02-15T08:14:09;11.98;;;4.90;;
42682;SDS011;28293;50.930;3.464;2024-02-15T08:16:36;13.07;;;5.30;;
42682;SDS011;28293;50.930;3.464;2024-02-15T08:19:06;9.45;;;4.82;;
42682;SDS011;28293;50.930;3.464;2024-02-15T08:21:32;9.77;;;4.65;;
42682;SDS011;28293;50.930;3.464;2024-02-15T08:24:01;14.00;;;4.75;;
42682;SDS011;28293;50.930;3.464;2024-02-15T08:26:36;10.30;;;4.72;;
42682;SDS011;28293;50.930;3.464;2024-02-15T08:29:03;10.63;;;4.85;;
42682;SDS011;28293;50.930;3.464;2024-02-15T08:31:29;9.60;;;4.25;;
42682;SDS011;28293;50.930;3.464;2024-02-15T08:34:01;10.63;;;4.65;;
42682;SDS011;28293;50.930;3.464;2024-02-15T08:36:30;9.70;;;4.45;;
42682;SDS011;28293;50.930;3.464;2024-02-15T08:38:56;10.38;;;4.78;;
42682;SDS011;28293;50.930;3.464;2024-02-15T08:41:21;9.35;;;4.22;;
42682;SDS011;28293;50.930;3.464;2024-02-15T08:43:51;9.43;;;4.30;;
42682;SDS011;28293;50.930;3.464;2024-02-15T08:46:17;9.10;;;4.15;;
42682;SDS011;28293;50.930;3.464;2024-02-15T08:48:44;12.73;;;4.35;;
42682;SDS011;28293;50.930;3.464;2024-02-15T08:51:11;8.48;;;3.85;;
42682;SDS011;28293;50.930;3.464;2024-02-15T08:53:37;10.25;;;3.80;;
42682;SDS011;28293;50.930;3.464;2024-02-15T08:56:06;8.77;;;3.60;;
42682;SDS011;28293;50.930;3.464;2024-02-15T08:58:34;9.18;;;3.75;;
42682;SDS011;28293;50.930;3.464;2024-02-15T09:01:00;9.93;;;3.50;;
42682;SDS011;28293;50.930;3.464;2024-02-15T09:03:27;7.68;;;3.55;;
42682;SDS011;28293;50.930;3.464;2024-02-15T09:05:53;8.85;;;3.95;;
42682;SDS011;28293;50.930;3.464;2024-02-15T09:08:19;9.88;;;4.65;;
42682;SDS011;28293;50.930;3.464;2024-02-15T09:10:46;8.73;;;3.60;;
42682;SDS011;28293;50.930;3.464;2024-02-15T09:13:14;7.60;;;3.78;;
42682;SDS011;28293;50.930;3.464;2024-02-15T09:15:40;9.02;;;3.72;;
42682;SDS011;28293;50.930;3.464;2024-02-15T09:18:06;8.50;;;3.83;;
42682;SDS011;28293;50.930;3.464;2024-02-15T09:20:34;7.20;;;3.05;;
42682;SDS011;28293;50.930;3.464;2024-02-15T09:23:02;8.23;;;3.60;;
42682;SDS011;28293;50.930;3.464;2024-02-15T09:25:34;9.82;;;3.80;;
42682;SDS011;28293;50.930;3.464;2024-02-15T09:28:02;8.65;;;3.38;;
42682;SDS011;28293;50.930;3.464;2024-02-15T09:30:29;9.38;;;3.25;;
42682;SDS011;28293;50.930;3.464;2024-02-15T09:32:56;7.25;;;3.30;;
42682;SDS011;28293;50.930;3.464;2024-02-15T09:35:22;8.55;;;3.63;;
42682;SDS011;28293;50.930;3.464;2024-02-15T09:37:48;7.60;;;3.25;;
42682;SDS011;28293;50.930;3.464;2024-02-15T09:40:15;8.25;;;3.70;;
42682;SDS011;28293;50.930;3.464;2024-02-15T09:42:42;8.77;;;3.25;;
42682;SDS011;28293;50.930;3.464;2024-02-15T09:45:10;8.68;;;3.75;;
42682;SDS011;28293;50.930;3.464;2024-02-15T09:47:41;8.95;;;3.58;;
42682;SDS011;28293;50.930;3.464;2024-02-15T09:50:07;10.23;;;3.38;;
42682;SDS011;28293;50.930;3.464;2024-02-15T09:52:36;9.60;;;3.33;;
42682;SDS011;28293;50.930;3.464;2024-02-15T09:55:08;9.43;;;3.63;;
42682;SDS011;28293;50.930;3.464;2024-02-15T09:57:38;8.88;;;3.30;;
42682;SDS011;28293;50.930;3.464;2024-02-15T10:00:07;7.68;;;3.17;;
42682;SDS011;28293;50.930;3.464;2024-02-15T10:02:34;9.05;;;3.58;;
42682;SDS011;28293;50.930;3.464;2024-02-15T10:05:02;10.77;;;3.92;;
42682;SDS011;28293;50.930;3.464;2024-02-15T10:07:28;8.05;;;3.35;;
42682;SDS011;28293;50.930;3.464;2024-02-15T10:09:54;12.00;;;4.28;;
42682;SDS011;28293;50.930;3.464;2024-02-15T10:12:20;9.68;;;3.28;;
42682;SDS011;28293;50.930;3.464;2024-02-15T10:14:49;7.43;;;3.33;;
42682;SDS011;28293;50.930;3.464;2024-02-15T10:17:17;8.73;;;4.05;;
42682;SDS011;28293;50.930;3.464;2024-02-15T10:19:44;11.20;;;4.07;;
42682;SDS011;28293;50.930;3.464;2024-02-15T10:22:27;8.32;;;3.55;;
42682;SDS011;28293;50.930;3.464;2024-02-15T10:24:53;8.90;;;3.17;;
42682;SDS011;28293;50.930;3.464;2024-02-15T10:27:35;11.27;;;3.25;;
42682;SDS011;28293;50.930;3.464;2024-02-15T10:30:24;8.73;;;3.10;;
42682;SDS011;28293;50.930;3.464;2024-02-15T10:32:49;7.03;;;2.67;;
42682;SDS011;28293;50.930;3.464;2024-02-15T10:35:18;7.63;;;3.08;;
42682;SDS011;28293;50.930;3.464;2024-02-15T10:37:45;9.77;;;3.17;;
42682;SDS011;28293;50.930;3.464;2024-02-15T10:40:12;7.45;;;2.60;;
42682;SDS011;28293;50.930;3.464;2024-02-15T10:42:39;10.25;;;3.63;;
42682;SDS011;28293;50.930;3.464;2024-02-15T10:45:07;8.63;;;3.17;;
42682;SDS011;28293;50.930;3.464;2024-02-15T10:47:37;8.77;;;3.05;;
42682;SDS011;28293;50.930;3.464;2024-02-15T10:50:05;9.32;;;3.13;;
42682;SDS011;28293;50.930;3.464;2024-02-15T10:52:32;5.95;;;2.58;;
42682;SDS011;28293;50.930;3.464;2024-02-15T10:55:03;7.47;;;3.05;;
42682;SDS011;28293;50.930;3.464;2024-02-15T10:57:33;10.75;;;2.95;;
42682;SDS011;28293;50.930;3.464;2024-02-15T11:00:04;9.38;;;2.85;;
42682;SDS011;28293;50.930;3.464;2024-02-15T11:02:40;8.57;;;3.30;;
42682;SDS011;28293;50.930;3.464;2024-02-15T11:05:31;8.05;;;3.97;;
42682;SDS011;28293;50.930;3.464;2024-02-15T11:08:00;9.55;;;4.20;;
42682;SDS011;28293;50.930;3.464;2024-02-15T11:10:30;8.30;;;4.22;;
42682;SDS011;28293;50.930;3.464;2024-02-15T11:12:57;8.15;;;4.00;;
42682;SDS011;28293;50.930;3.464;2024-02-15T11:18:02;7.47;;;3.30;;
42682;SDS011;28293;50.930;3.464;2024-02-15T11:23:00;9.65;;;3.58;;
42682;SDS011;28293;50.930;3.464;2024-02-15T11:25:35;8.82;;;3.40;;
42682;SDS011;28293;50.930;3.464;2024-02-15T11:30:51;8.13;;;3.13;;
42682;SDS011;28293;50.930;3.464;2024-02-15T11:33:33;8.70;;;3.03;;
42682;SDS011;28293;50.930;3.464;2024-02-15T11:36:09;8.52;;;3.03;;
42682;SDS011;28293;50.930;3.464;2024-02-15T11:38:36;9.63;;;3.47;;
42682;SDS011;28293;50.930;3.464;2024-02-15T11:41:06;7.95;;;3.08;;
42682;SDS011;28293;50.930;3.464;2024-02-15T11:46:17;9.25;;;3.70;;
42682;SDS011;28293;50.930;3.464;2024-02-15T11:48:50;10.55;;;3.20;;
42682;SDS011;28293;50.930;3.464;2024-02-15T11:54:05;11.32;;;3.70;;
42682;SDS011;28293;50.930;3.464;2024-02-15T11:59:13;8.68;;;3.10;;
42682;SDS011;28293;50.930;3.464;2024-02-15T12:01:59;10.57;;;3.38;;
42682;SDS011;28293;50.930;3.464;2024-02-15T12:04:43;7.95;;;3.22;;
42682;SDS011;28293;50.930;3.464;2024-02-15T12:07:28;8.77;;;2.90;;
42682;SDS011;28293;50.930;3.464;2024-02-15T12:10:18;8.23;;;3.20;;
42682;SDS011;28293;50.930;3.464;2024-02-15T12:13:03;8.00;;;3.05;;
42682;SDS011;28293;50.930;3.464;2024-02-15T12:16:00;8.13;;;3.20;;
42682;SDS011;28293;50.930;3.464;2024-02-15T12:18:45;10.13;;;3.78;;
42682;SDS011;28293;50.930;3.464;2024-02-15T12:21:17;6.55;;;3.20;;
42682;SDS011;28293;50.930;3.464;2024-02-15T12:23:48;6.57;;;2.78;;
42682;SDS011;28293;50.930;3.464;2024-02-15T12:26:18;7.03;;;2.88;;
42682;SDS011;28293;50.930;3.464;2024-02-15T12:28:51;7.78;;;2.90;;
42682;SDS011;28293;50.930;3.464;2024-02-15T12:31:19;9.25;;;3.15;;
42682;SDS011;28293;50.930;3.464;2024-02-15T12:33:45;8.27;;;2.67;;
42682;SDS011;28293;50.930;3.464;2024-02-15T12:36:13;5.82;;;2.92;;
42682;SDS011;28293;50.930;3.464;2024-02-15T12:38:39;7.70;;;2.90;;
42682;SDS011;28293;50.930;3.464;2024-02-15T12:41:18;10.68;;;3.83;;
42682;SDS011;28293;50.930;3.464;2024-02-15T12:43:47;8.90;;;3.45;;
42682;SDS011;28293;50.930;3.464;2024-02-15T12:46:19;7.68;;;3.10;;
42682;SDS011;28293;50.930;3.464;2024-02-15T12:48:44;7.43;;;2.80;;
42682;SDS011;28293;50.930;3.464;2024-02-15T12:51:14;6.70;;;2.63;;
42682;SDS011;28293;50.930;3.464;2024-02-15T12:53:41;5.90;;;2.65;;
42682;SDS011;28293;50.930;3.464;2024-02-15T12:56:07;6.68;;;3.00;;
42682;SDS011;28293;50.930;3.464;2024-02-15T12:58:34;7.85;;;2.90;;
42682;SDS011;28293;50.930;3.464;2024-02-15T13:01:00;6.88;;;3.08;;
42682;SDS011;28293;50.930;3.464;2024-02-15T13:03:26;9.60;;;2.90;;
42682;SDS011;28293;50.930;3.464;2024-02-15T13:05:52;8.50;;;3.30;;
42682;SDS011;28293;50.930;3.464;2024-02-15T13:08:18;8.35;;;2.88;;
42682;SDS011;28293;50.930;3.464;2024-02-15T13:10:44;7.00;;;2.83;;
42682;SDS011;28293;50.930;3.464;2024-02-15T13:13:11;7.57;;;2.90;;
42682;SDS011;28293;50.930;3.464;2024-02-15T13:15:39;7.60;;;2.67;;
42682;SDS011;28293;50.930;3.464;2024-02-15T13:18:05;8.60;;;2.70;;
42682;SDS011;28293;50.930;3.464;2024-02-15T13:20:31;7.97;;;2.65;;
42682;SDS011;28293;50.930;3.464;2024-02-15T13:23:05;5.78;;;2.47;;
42682;SDS011;28293;50.930;3.464;2024-02-15T13:25:34;6.10;;;2.45;;
42682;SDS011;28293;50.930;3.464;2024-02-15T13:28:04;7.45;;;2.80;;
42682;SDS011;28293;50.930;3.464;2024-02-15T13:30:31;6.47;;;2.50;;
42682;SDS011;28293;50.930;3.464;2024-02-15T13:32:57;7.32;;;2.88;;
42682;SDS011;28293;50.930;3.464;2024-02-15T13:35:23;8.43;;;2.70;;
42682;SDS011;28293;50.930;3.464;2024-02-15T13:37:53;6.80;;;2.70;;
42682;SDS011;28293;50.930;3.464;2024-02-15T13:40:22;6.78;;;2.90;;
42682;SDS011;28293;50.930;3.464;2024-02-15T13:42:49;8.13;;;2.85;;
42682;SDS011;28293;50.930;3.464;2024-02-15T13:45:28;5.43;;;3.00;;
42682;SDS011;28293;50.930;3.464;2024-02-15T13:47:57;9.05;;;2.60;;
42682;SDS011;28293;50.930;3.464;2024-02-15T13:50:25;7.35;;;2.40;;
42682;SDS011;28293;50.930;3.464;2024-02-15T13:52:53;5.68;;;2.35;;
42682;SDS011;28293;50.930;3.464;2024-02-15T13:55:19;7.15;;;2.70;;
42682;SDS011;28293;50.930;3.464;2024-02-15T13:57:50;6.65;;;2.72;;
42682;SDS011;28293;50.930;3.464;2024-02-15T14:00:17;7.97;;;3.03;;
42682;SDS011;28293;50.930;3.464;2024-02-15T14:02:48;6.60;;;2.63;;
42682;SDS011;28293;50.930;3.464;2024-02-15T14:05:14;6.45;;;2.72;;
42682;SDS011;28293;50.930;3.464;2024-02-15T14:07:44;8.45;;;2.78;;
42682;SDS011;28293;50.930;3.464;2024-02-15T14:10:14;7.43;;;2.38;;
42682;SDS011;28293;50.930;3.464;2024-02-15T14:12:43;8.25;;;2.58;;
42682;SDS011;28293;50.930;3.464;2024-02-15T14:15:10;7.57;;;3.00;;
42682;SDS011;28293;50.930;3.464;2024-02-15T14:17:36;7.65;;;2.53;;
42682;SDS011;28293;50.930;3.464;2024-02-15T14:20:03;6.88;;;2.30;;
42682;SDS011;28293;50.930;3.464;2024-02-15T14:22:33;6.75;;;2.58;;
42682;SDS011;28293;50.930;3.464;2024-02-15T14:24:59;6.82;;;2.60;;
42682;SDS011;28293;50.930;3.464;2024-02-15T14:27:25;5.65;;;2.58;;
42682;SDS011;28293;50.930;3.464;2024-02-15T14:29:51;4.57;;;2.30;;
42682;SDS011;28293;50.930;3.464;2024-02-15T14:32:35;7.00;;;2.45;;
42682;SDS011;28293;50.930;3.464;2024-02-15T14:35:19;6.15;;;2.58;;
42682;SDS011;28293;50.930;3.464;2024-02-15T14:37:46;6.65;;;2.78;;
42682;SDS011;28293;50.930;3.464;2024-02-15T14:40:11;6.38;;;2.50;;
42682;SDS011;28293;50.930;3.464;2024-02-15T14:42:40;6.35;;;2.75;;
42682;SDS011;28293;50.930;3.464;2024-02-15T14:45:10;8.93;;;2.63;;
42682;SDS011;28293;50.930;3.464;2024-02-15T14:47:38;5.72;;;2.40;;
42682;SDS011;28293;50.930;3.464;2024-02-15T14:50:04;6.75;;;2.65;;
42682;SDS011;28293;50.930;3.464;2024-02-15T14:52:38;6.40;;;2.45;;
42682;SDS011;28293;50.930;3.464;2024-02-15T14:55:04;8.00;;;2.50;;
42682;SDS011;28293;50.930;3.464;2024-02-15T14:57:32;6.18;;;2.50;;
42682;SDS011;28293;50.930;3.464;2024-02-15T14:59:59;6.45;;;2.72;;
42682;SDS011;28293;50.930;3.464;2024-02-15T15:02:25;4.88;;;2.20;;